Latest Weather Observations for Proserpine

IDQ60801

Issued at 5:21 am EST Tuesday 21 May 2019 (issued every 10 minutes, with the page automatically refreshed every 10 minutes)

About weather observations | Map of weather stations | Latest weather observations for QLD | Other Formats
Station Details ID: 033247 Name: PROSERPINE AIRPORT Lat: -20.49 Lon: 148.56 Height: 19.7 m
Data from the previous 72 hours. | See also: Recent months at Proserpine
Date/Time
EST
Temp
°C
App
Temp
°C
Dew
Point
°C
Rel
Hum
%
Delta-T
°C
Wind Press
QNH
hPa
Press
MSL
hPa
Rain since
9am
mm
Dir  Spd
km/h
Gust
km/h
Spd
kts
Gust
kts
21/05:00am 19.7 19.3 18.0 90 1.0 SE 17 22 9 12 1019.5 1019.4 0.6
21/04:30am 19.7 19.2 17.8 89 1.2 SSE 17 20 9 11 1019.5 1019.4 0.2
21/04:00am 19.4 19.6 17.7 90 1.0 SSE 13 20 7 11 1019.4 1019.3 0.2
21/03:30am 19.2 19.0 17.7 91 0.9 SSE 15 20 8 11 1019.4 1019.3 0.2
21/03:00am 19.3 19.1 17.6 90 1.0 SSE 15 19 8 10 1019.5 1019.4 0.2
21/02:30am 19.1 19.8 17.9 93 0.7 SSE 11 15 6 8 1019.6 1019.5 0.2
21/02:00am 19.1 20.2 17.9 93 0.7 S 9 13 5 7 1019.8 1019.7 0.2
21/01:30am 19.2 20.0 18.2 94 0.6 S 11 15 6 8 1020.2 1020.1 0.2
21/01:00am 19.4 19.5 18.4 94 0.6 S 15 24 8 13 1020.4 1020.3 0.2
21/12:43am 19.4 19.2 18.6 95 0.5 S 17 24 9 13 1020.5 1020.4 0.2
21/12:30am 19.4 19.2 18.6 95 0.5 SSE 17 20 9 11 1020.6 1020.5 0.2
21/12:12am 19.7 19.0 18.2 91 0.9 SSE 19 24 10 13 1021.0 1020.9 0.0
21/12:00am 19.7 19.2 17.8 89 1.2 S 17 20 9 11 1020.9 1020.8 0.0
 
Date/Time
EST
Temp
°C
App
Temp
°C
Dew
Point
°C
Rel
Hum
%
Delta-T
°C
Wind Press
QNH
hPa
Press
MSL
hPa
Rain since
9am
mm
Dir  Spd
km/h
Gust
km/h
Spd
kts
Gust
kts
20/11:30pm 19.9 19.6 17.3 85 1.6 S 15 19 8 10 1021.3 1021.2 0.0
20/11:00pm 20.0 19.5 16.8 82 1.9 SSE 15 17 8 9 1021.4 1021.3 0.0
20/10:30pm 19.7 19.4 16.5 82 1.9 S 13 17 7 9 1021.5 1021.4 0.0
20/10:00pm 19.5 18.8 16.5 83 1.8 SSE 15 19 8 10 1021.4 1021.3 0.0
20/09:30pm 19.2 19.0 16.6 85 1.6 SSE 13 19 7 10 1021.5 1021.4 0.0
20/09:00pm 19.7 19.1 16.7 83 1.8 SSE 15 20 8 11 1021.5 1021.4 0.0
20/08:30pm 19.9 19.9 17.1 84 1.7 SSE 13 15 7 8 1021.5 1021.4 0.0
20/08:00pm 19.9 19.8 16.9 83 1.8 SSE 13 15 7 8 1021.1 1021.0 0.0
20/07:30pm 20.2 20.1 17.0 82 1.9 SE 13 19 7 10 1020.8 1020.7 0.0
20/07:00pm 21.1 20.7 17.1 78 2.4 SSE 15 19 8 10 1020.9 1020.8 0.0
20/06:30pm 21.7 21.4 17.3 76 2.7 SSE 15 20 8 11 1020.4 1020.3 0.0
20/06:00pm 22.1 22.3 17.7 76 2.7 SSE 13 20 7 11 1020.3 1020.2 0.0
20/05:30pm 22.3 21.2 17.4 74 3.0 SE 19 24 10 13 1020.1 1020.0 0.0
20/05:00pm 23.1 21.0 18.0 73 3.2 ESE 26 43 14 23 1019.9 1019.8 0.0
20/04:30pm 23.0 21.8 18.5 76 2.8 ESE 22 30 12 16 1019.6 1019.5 0.0
20/04:00pm 23.5 23.3 18.6 74 3.1 E 17 26 9 14 1019.5 1019.4 0.0
20/03:30pm 23.0 23.1 18.3 75 3.0 E 15 20 8 11 1019.6 1019.5 0.0
20/03:00pm 23.4 21.1 17.6 70 3.6 ESE 26 35 14 19 1019.8 1019.7 0.0
20/02:46pm 23.2 20.1 17.4 70 3.6 E 30 48 16 26 1019.8 1019.7 0.0
20/02:30pm 24.6 21.8 18.3 68 4.0 E 30 44 16 24 1019.7 1019.6 0.0
20/02:00pm 25.3 22.9 18.2 64 4.5 E 28 39 15 21 1019.6 1019.5 0.0
20/01:30pm 25.6 22.8 18.3 64 4.6 ESE 30 37 16 20 1019.9 1019.8 0.0
20/01:00pm 25.8 23.7 19.0 66 4.3 ESE 28 37 15 20 1020.2 1020.1 0.0
20/12:30pm 24.4 21.9 18.1 68 4.0 E 28 37 15 20 1020.5 1020.4 0.0
20/12:00pm 25.4 23.5 18.6 66 4.3 E 26 35 14 19 1020.9 1020.8 0.0
20/11:30am 25.1 22.9 17.8 64 4.6 ESE 26 37 14 20 1021.0 1020.9 0.0
20/11:00am 25.0 23.2 18.7 68 4.0 ESE 26 35 14 19 1021.4 1021.3 0.0
20/10:30am 24.8 22.9 18.5 68 4.0 ESE 26 37 14 20 1021.7 1021.6 0.0
20/10:00am 23.4 20.9 18.1 72 3.3 ESE 28 35 15 19 1021.9 1021.8 0.0
20/09:30am 23.4 20.7 18.5 74 3.1 ESE 30 43 16 23 1022.0 1021.9 0.0
20/09:00am 23.2 22.2 18.9 77 2.7 ESE 22 32 12 17 1021.9 1021.8 2.4
20/08:30am 22.2 22.3 18.4 79 2.4 SSE 15 20 8 11 1021.6 1021.5 2.4
20/08:00am 21.2 20.7 17.8 81 2.1 SSE 17 24 9 13 1021.4 1021.3 2.4
20/07:30am 20.0 20.1 17.4 85 1.6 S 13 19 7 10 1021.3 1021.2 2.4
20/07:00am 19.0 18.6 17.1 89 1.1 SSE 15 20 8 11 1021.1 1021.0 2.4
20/06:30am 18.7 18.2 16.9 89 1.1 SSE 15 20 8 11 1020.7 1020.6 2.4
20/06:00am 18.9 18.1 17.2 90 1.0 SSE 17 22 9 12 1020.5 1020.4 2.4
20/05:30am 18.7 18.3 17.2 91 0.9 S 15 19 8 10 1020.6 1020.5 2.4
20/05:00am 19.0 18.8 17.5 91 0.9 S 15 20 8 11 1020.5 1020.4 2.4
20/04:30am 19.1 18.9 17.6 91 0.9 SSE 15 22 8 12 1020.4 1020.3 2.4
20/04:00am 19.4 18.9 17.9 91 0.9 S 17 24 9 13 1020.5 1020.4 2.4
20/03:30am 19.3 18.8 17.8 91 0.9 S 17 22 9 12 1020.5 1020.4 2.4
20/03:00am 19.3 19.6 17.8 91 0.9 SSE 13 17 7 9 1020.4 1020.3 2.4
20/02:30am 19.6 19.5 17.9 90 1.0 SSE 15 20 8 11 1020.6 1020.5 2.4
20/02:00am 20.0 20.0 18.1 89 1.2 SSE 15 22 8 12 1020.9 1020.8 2.4
20/01:30am 19.9 19.1 18.0 89 1.2 SSE 19 24 10 13 1021.1 1021.0 2.4
20/01:00am 19.9 19.5 18.0 89 1.2 SSE 17 22 9 12 1021.3 1021.2 2.4
20/12:30am 19.8 20.1 17.9 89 1.2 S 13 19 7 10 1021.6 1021.5 2.4
20/12:00am 20.1 20.1 18.2 89 1.2 S 15 19 8 10 1021.8 1021.7 2.4
 
Date/Time
EST
Temp
°C
App
Temp
°C
Dew
Point
°C
Rel
Hum
%
Delta-T
°C
Wind Press
QNH
hPa
Press
MSL
hPa
Rain since
9am
mm
Dir  Spd
km/h
Gust
km/h
Spd
kts
Gust
kts
19/11:30pm 20.2 19.9 18.3 89 1.2 SSE 17 22 9 12 1022.0 1021.9 2.4
19/11:00pm 20.4 20.1 18.3 88 1.3 SSE 17 24 9 13 1021.9 1021.8 2.4
19/10:30pm 20.7 20.5 18.6 88 1.3 SSE 17 20 9 11 1021.9 1021.8 2.4
19/10:00pm 20.5 21.7 19.0 91 0.9 S 11 15 6 8 1022.1 1022.0 2.4
19/09:30pm 20.3 22.5 19.3 94 0.6 ESE 6 7 3 4 1022.2 1022.1 2.4
19/09:00pm 20.3 22.0 19.3 94 0.6 SSE 9 13 5 7 1022.3 1022.2 2.4
19/08:43pm 20.2 21.5 19.2 94 0.6 ESE 11 17 6 9 1022.3 1022.2 2.4
19/08:30pm 20.2 20.2 19.0 93 0.8 E 17 22 9 12 1022.3 1022.2 2.4
19/08:19pm 20.5 20.1 18.8 90 1.1 ESE 19 32 10 17 1022.4 1022.3 1.2
19/08:00pm 21.2 21.6 19.1 88 1.3 SSE 15 19 8 10 1021.9 1021.8 0.8
19/07:30pm 20.9 21.7 19.0 89 1.2 SSE 13 19 7 10 1021.6 1021.5 0.8
19/07:29pm 20.9 21.8 19.2 90 1.1 SSE 13 19 7 10 1021.6 1021.5 0.8
19/07:17pm 21.1 21.5 19.0 88 1.3 SSE 15 20 8 11 1021.4 1021.3 0.8
19/07:00pm 21.5 22.0 19.2 87 1.5 SSE 15 19 8 10 1021.3 1021.2 0.2
19/06:30pm 21.2 21.7 19.3 89 1.2 SSE 15 20 8 11 1020.7 1020.6 0.2
19/06:00pm 20.8 21.4 19.5 92 0.8 SSE 15 19 8 10 1020.3 1020.2 0.2
19/05:30pm 21.4 18.2 18.2 82 2.0 ESE 32 43 17 23 1020.3 1020.2 0.0
19/05:00pm 22.5 22.3 19.7 84 1.8 ESE 20 30 11 16 1019.7 1019.6 0.0
19/04:52pm 22.3 21.7 19.7 85 1.7 SE 22 35 12 19 1019.6 1019.5 0.0
19/04:34pm 21.9 21.8 19.6 87 1.5 E 19 30 10 16 1019.7 1019.6 0.0
19/04:30pm 22.3 22.1 19.8 86 1.6 E 20 30 11 16 1019.7 1019.6 0.0
19/04:00pm 23.1 22.3 19.3 79 2.4 ESE 22 35 12 19 1019.5 1019.4 0.0
19/03:30pm 23.3 21.2 19.0 77 2.7 ESE 28 44 15 24 1019.4 1019.3 0.0
19/03:00pm 25.0 22.9 18.9 69 3.9 ESE 28 46 15 25 1019.0 1018.9 0.0
19/02:30pm 24.8 22.1 18.5 68 4.0 ESE 30 43 16 23 1019.3 1019.2 0.0
19/02:00pm 25.2 21.6 18.6 67 4.2 ESE 35 48 19 26 1019.3 1019.2 0.0
19/01:30pm 25.6 22.2 19.0 67 4.2 ESE 35 48 19 26 1019.6 1019.5 0.0
19/01:00pm 25.0 21.8 18.7 68 4.0 ESE 33 44 18 24 1020.1 1020.0 0.0
19/12:30pm 25.3 22.3 18.7 67 4.2 ESE 32 43 17 23 1020.4 1020.3 0.0
19/12:00pm 25.3 22.1 18.2 64 4.5 ESE 32 50 17 27 1020.9 1020.8 0.0
19/11:30am 25.0 22.5 18.9 69 3.9 ESE 30 43 16 23 1021.3 1021.2 0.0
19/11:00am 24.3 21.3 17.8 67 4.1 SE 30 43 16 23 1021.7 1021.6 0.0
19/10:30am 24.6 22.4 18.8 70 3.7 ESE 28 39 15 21 1021.9 1021.8 0.0
19/10:00am 23.7 20.6 18.4 72 3.3 SE 32 41 17 22 1022.0 1021.9 0.0
19/09:30am 24.3 21.6 18.5 70 3.7 SE 30 39 16 21 1022.1 1022.0 0.0
19/09:00am 23.5 22.3 18.4 73 3.2 SE 22 35 12 19 1022.0 1021.9 0.8
19/08:30am 21.9 20.5 17.9 78 2.5 SSE 22 33 12 18 1021.9 1021.8 0.8
19/08:00am 21.7 20.7 17.9 79 2.4 SE 20 28 11 15 1021.8 1021.7 0.8
19/07:30am 20.9 19.9 17.5 81 2.1 SSE 19 28 10 15 1021.8 1021.7 0.8
19/07:00am 19.9 19.3 17.5 86 1.5 SSE 17 20 9 11 1021.6 1021.5 0.8
19/06:30am 19.4 19.5 17.4 88 1.2 SSE 13 17 7 9 1021.6 1021.5 0.8
19/06:00am 19.6 19.6 17.2 86 1.5 SSE 13 19 7 10 1021.2 1021.1 0.8
19/05:30am 19.7 19.4 17.3 86 1.5 SSE 15 20 8 11 1020.9 1020.8 0.8
19/05:00am 20.0 19.4 17.6 86 1.5 SSE 17 24 9 13 1020.5 1020.4 0.8
19/04:30am 20.0 19.5 17.8 87 1.4 SSE 17 20 9 11 1020.3 1020.2 0.8
19/04:00am 20.1 19.3 17.9 87 1.4 SSE 19 24 10 13 1020.3 1020.2 0.8
19/03:30am 20.4 20.1 18.2 87 1.4 SSE 17 22 9 12 1020.3 1020.2 0.8
19/03:00am 20.7 20.4 18.3 86 1.5 SSE 17 24 9 13 1020.4 1020.3 0.8
19/02:30am 20.6 20.8 18.5 88 1.3 SSE 15 20 8 11 1020.6 1020.5 0.8
19/02:00am 20.4 20.8 18.9 91 0.9 SSE 15 20 8 11 1020.8 1020.7 0.8
19/01:34am 19.9 20.5 18.7 93 0.7 SSE 13 17 7 9 1021.0 1020.9 0.6
19/01:30am 20.0 20.7 18.8 93 0.8 SE 13 17 7 9 1021.0 1020.9 0.6
19/01:12am 20.2 20.5 18.7 91 0.9 SE 15 20 8 11 1021.3 1021.2 0.2
19/01:07am 20.4 20.7 18.7 90 1.1 SE 15 24 8 13 1021.4 1021.3 0.0
19/01:00am 20.5 20.0 18.6 89 1.2 SSE 19 28 10 15 1021.3 1021.2 0.0
19/12:56am 20.6 19.8 18.5 88 1.3 SSE 20 30 11 16 1021.3 1021.2 0.0
19/12:30am 21.2 20.6 18.4 84 1.7 SE 19 24 10 13 1021.4 1021.3 0.0
19/12:00am 21.2 20.4 18.4 84 1.7 SSE 20 28 11 15 1021.5 1021.4 0.0
 
Date/Time
EST
Temp
°C
App
Temp
°C
Dew
Point
°C
Rel
Hum
%
Delta-T
°C
Wind Press
QNH
hPa
Press
MSL
hPa
Rain since
9am
mm
Dir  Spd
km/h
Gust
km/h
Spd
kts
Gust
kts
18/11:30pm 20.9 20.7 18.5 86 1.5 S 17 22 9 12 1021.7 1021.6 0.0
18/11:00pm 20.8 21.0 18.6 87 1.4 S 15 24 8 13 1021.9 1021.8 0.0
18/10:30pm 20.7 20.9 18.5 87 1.4 SSE 15 20 8 11 1022.1 1022.0 0.0
18/10:00pm 20.9 21.5 18.5 86 1.5 S 13 20 7 11 1022.0 1021.9 0.0
18/09:30pm 21.0 21.5 18.4 85 1.6 S 13 19 7 10 1022.1 1022.0 0.0
18/09:00pm 20.8 20.9 18.4 86 1.5 S 15 19 8 10 1022.1 1022.0 0.0
18/08:30pm 20.8 21.2 18.2 85 1.6 S 13 17 7 9 1022.0 1021.9 0.0
18/08:00pm 20.9 21.8 18.3 85 1.6 SSE 11 15 6 8 1021.8 1021.7 0.0
18/07:30pm 21.1 21.9 18.1 83 1.9 SSE 11 15 6 8 1021.3 1021.2 0.0
18/07:00pm 21.9 21.3 18.5 81 2.1 SE 19 28 10 15 1021.0 1020.9 0.0
18/06:30pm 21.7 22.3 18.5 82 2.0 SE 13 20 7 11 1020.8 1020.7 0.0
18/06:00pm 22.1 22.0 18.7 81 2.1 SE 17 24 9 13 1020.4 1020.3 0.0
18/05:30pm 22.7 20.9 18.7 78 2.5 ESE 26 37 14 20 1020.1 1020.0 0.0
18/05:00pm 23.3 20.3 18.6 75 3.0 ESE 32 41 17 22 1019.7 1019.6 0.0
18/04:30pm 23.9 21.0 18.8 73 3.2 ESE 32 44 17 24 1019.5 1019.4 0.0
18/04:00pm 24.3 21.4 18.9 72 3.4 ESE 32 44 17 24 1019.2 1019.1 0.0
18/03:30pm 24.7 21.7 18.6 69 3.9 E 32 48 17 26 1019.2 1019.1 0.0
18/03:00pm 24.8 21.6 18.7 69 3.9 E 33 46 18 25 1019.3 1019.2 0.0
18/02:30pm 25.2 21.5 18.4 66 4.3 ESE 35 50 19 27 1019.5 1019.4 0.0
18/02:00pm 25.8 22.4 19.0 66 4.3 ESE 35 48 19 26 1019.9 1019.8 0.0
18/01:30pm 25.6 22.1 18.8 66 4.3 ESE 35 46 19 25 1020.0 1019.9 0.0
18/01:00pm 25.5 21.8 18.4 65 4.5 ESE 35 48 19 26 1020.1 1020.0 0.0
18/12:45pm 25.8 23.2 18.7 65 4.5 ESE 30 48 16 26 1020.4 1020.3 0.0
18/12:30pm 25.8 22.0 19.0 66 4.4 ESE 37 50 20 27 1020.6 1020.5 0.0
18/12:00pm 24.8 20.7 18.3 67 4.1 SE 37 52 20 28 1021.0 1020.9 0.0
18/11:30am 25.4 22.0 19.1 68 4.0 ESE 35 46 19 25 1021.5 1021.4 0.0
18/11:00am 25.3 22.5 19.0 68 4.0 ESE 32 46 17 25 1021.7 1021.6 0.0
18/10:30am 24.9 21.7 18.6 68 4.0 ESE 33 46 18 25 1022.2 1022.1 0.0
18/10:05am 25.0 22.6 19.1 70 3.8 ESE 30 48 16 26 1022.3 1022.2 0.0
18/10:00am 24.8 22.6 19.6 73 3.3 ESE 30 43 16 23 1022.3 1022.2 0.0
18/09:30am 24.4 22.0 19.2 73 3.3 ESE 30 41 16 22 1022.3 1022.2 0.0
18/09:00am 23.7 22.0 19.0 75 3.0 ESE 26 35 14 19 1022.2 1022.1 0.6
18/08:30am 23.2 23.9 19.6 80 2.3 SSE 15 20 8 11 1022.0 1021.9 0.6
18/08:00am 21.8 22.0 18.6 82 2.0 SSE 15 19 8 10 1021.6 1021.5 0.6
18/07:30am 20.7 20.9 18.5 87 1.4 SSE 15 19 8 10 1021.5 1021.4 0.6
18/07:00am 19.8 19.3 17.9 89 1.2 SSE 17 24 9 13 1021.3 1021.2 0.6
18/06:30am 20.0 19.6 18.1 89 1.2 SSE 17 26 9 14 1021.0 1020.9 0.6
18/06:00am 20.3 19.5 18.4 89 1.2 SSE 20 28 11 15 1020.6 1020.5 0.6
18/05:30am 20.3 19.8 18.6 90 1.1 SSE 19 28 10 15 1020.2 1020.1 0.6

Other formats

Comma delimited format used in spreadsheet applications
http://www.bom.gov.au/fwo/IDQ60801/IDQ60801.94365.axf

JavaScript Object Notation format (JSON) in row-major order
http://www.bom.gov.au/fwo/IDQ60801/IDQ60801.94365.json

Data quality

Most of these data are generated automatically and are frequently updated. Quality checks on data are not normally performed. It is possible for incorrect values to appear. Refer to information at About Latest Weather Observations and please check the disclaimer before using these data.